Main page
METAR-TAF:

METAR-TAF

Airports :

Beauvais, France

Beauvais–Tillé Airport

latitude: 49-28N, longitude: 002-07E, elevation: 109 m

Current weather observation

The report was made 19 minutes ago, at 07:00 UTC
Wind 10 kt from the East
Temperature 18°C
Humidity 68%
Pressure 1019 hPa
Visibility: 2500 m

METAR: LFOB 260700Z AUTO 10010KT 9999 2500 NSC 18/12 Q1019 NOSIG

Time: 09:19 (07:19 UTC)

Forecast

The report was made 2 hours and 19 minutes ago, at 05:00 UTC
Forecast valid from 26 at 06 UTC to 27 at 06 UTC
Wind 10 kt from the East
Visibility 10 km or more
no clouds below 1500 m and no cumulonimbus
Becoming
from 27 at 00 UTC to 27 at 04 UTC
Wind 10 kt from the South/Southeast

TAF: LFOB 260500Z 2606/2706 09010KT CAVOK BECMG 2700/2704 15010KT

Weather observations and forecasts of more than 4000 airports (METAR and TAF reports).

The available stations are represented by yellow and red dots on the map.

Hover mouse over dot to see the name of the station.

Then click to see weather observations and forecasts.

To change the map : click on the green buttons with a black cross to zoom in, on the green button with a dash to zoom out, or on the green arrows for adjacent maps.


METAR-TAF: